createdAt,value
2023-09-13T00:04:16.540Z,1.40
2023-09-13T00:09:18.015Z,1.70
2023-09-13T00:14:19.466Z,1.60
2023-09-13T00:19:21.150Z,1.70
2023-09-13T00:24:22.634Z,1.60
2023-09-13T00:29:24.079Z,1.73
2023-09-13T00:34:25.608Z,1.70
2023-09-13T00:39:27.093Z,2.03
2023-09-13T00:44:28.521Z,1.75
2023-09-13T00:49:30.134Z,1.63
2023-09-13T00:54:32.818Z,1.40
2023-09-13T00:59:34.774Z,1.67
2023-09-13T01:04:39.134Z,1.60
2023-09-13T01:09:40.704Z,1.70
2023-09-13T01:14:44.639Z,1.70
2023-09-13T01:20:01.105Z,1.63
2023-09-13T01:25:08.449Z,1.58
2023-09-13T01:30:10.192Z,1.67
2023-09-13T01:35:12.095Z,1.55
2023-09-13T01:40:13.720Z,1.60
2023-09-13T01:45:15.513Z,1.90
2023-09-13T01:50:17.157Z,1.80
2023-09-13T01:55:19.162Z,1.95
2023-09-13T02:00:20.675Z,1.75
2023-09-13T02:05:22.231Z,2.55
2023-09-13T02:10:23.929Z,1.85
2023-09-13T02:15:25.465Z,2.00
2023-09-13T02:20:26.949Z,2.25
2023-09-13T02:25:28.355Z,2.13
2023-09-13T02:30:30.950Z,1.90
2023-09-13T02:35:32.640Z,2.03
2023-09-13T02:40:34.060Z,2.08
2023-09-13T02:45:35.584Z,2.10
2023-09-13T02:50:40.846Z,2.90
2023-09-13T02:55:43.030Z,2.03
2023-09-13T03:00:44.978Z,2.20
2023-09-13T03:05:46.570Z,2.40
2023-09-13T03:10:47.974Z,2.63
2023-09-13T03:15:49.413Z,2.75
2023-09-13T03:20:51.352Z,2.85
2023-09-13T03:25:52.928Z,2.60
2023-09-13T03:30:54.423Z,2.63
2023-09-13T03:35:55.923Z,2.72
2023-09-13T03:40:57.427Z,3.10
2023-09-13T03:45:59.155Z,3.33
2023-09-13T03:51:00.709Z,2.40
2023-09-13T03:56:02.934Z,2.42
2023-09-13T04:01:05.426Z,2.35
2023-09-13T04:06:07.220Z,2.25
2023-09-13T04:11:09.739Z,2.05
2023-09-13T04:16:14.688Z,1.90
2023-09-13T04:21:16.237Z,2.60
2023-09-13T04:26:22.612Z,3.13
2023-09-13T04:31:24.264Z,2.78
2023-09-13T04:36:25.835Z,1.35
2023-09-13T04:41:27.323Z,1.50
2023-09-13T04:46:28.883Z,1.20
2023-09-13T04:51:30.460Z,1.73
2023-09-13T04:56:31.944Z,1.88
2023-09-13T05:01:33.562Z,1.17
2023-09-13T05:06:35.066Z,2.17
2023-09-13T05:11:36.538Z,1.65
2023-09-13T05:16:38.275Z,2.13
2023-09-13T05:21:39.906Z,2.38
2023-09-13T05:26:41.340Z,2.45
2023-09-13T05:31:42.998Z,1.80
2023-09-13T05:36:44.567Z,1.70
2023-09-13T05:41:46.571Z,1.67
2023-09-13T05:46:48.173Z,1.70
2023-09-13T05:51:50.328Z,1.50
2023-09-13T05:56:54.807Z,1.65
2023-09-13T06:01:56.401Z,1.58
2023-09-13T06:06:58.001Z,1.63
2023-09-13T06:11:59.583Z,1.83
2023-09-13T06:17:01.176Z,1.52
2023-09-13T06:22:03.886Z,1.40
2023-09-13T06:27:05.532Z,1.60
2023-09-13T06:32:07.860Z,1.75
2023-09-13T06:37:10.397Z,1.80
2023-09-13T06:42:27.509Z,1.95
2023-09-13T06:47:32.651Z,1.50
2023-09-13T06:52:40.909Z,1.80
2023-09-13T06:57:53.392Z,1.92
2023-09-13T07:02:58.893Z,1.65
2023-09-13T07:08:04.169Z,1.50
2023-09-13T07:13:06.542Z,1.58
2023-09-13T07:18:09.913Z,1.73
2023-09-13T07:23:11.513Z,1.38
2023-09-13T07:28:12.949Z,1.60
2023-09-13T07:33:14.394Z,1.40
2023-09-13T07:38:15.985Z,0.90
2023-09-13T07:43:17.505Z,1.40
2023-09-13T07:48:19.023Z,1.10
2023-09-13T07:53:20.592Z,1.10
2023-09-13T07:58:23.647Z,1.23
2023-09-13T08:03:25.313Z,1.13
2023-09-13T08:08:27.075Z,1.55
2023-09-13T08:13:28.690Z,1.23
2023-09-13T08:18:30.167Z,1.80
2023-09-13T08:23:31.635Z,1.40
2023-09-13T08:28:33.107Z,1.48
2023-09-13T08:33:34.618Z,1.00
2023-09-13T08:38:36.169Z,1.17
2023-09-13T08:43:38.775Z,1.30
2023-09-13T08:48:41.134Z,1.30
2023-09-13T08:53:43.518Z,1.48
2023-09-13T08:58:45.144Z,1.45
2023-09-13T09:03:48.385Z,1.90
2023-09-13T09:08:50.769Z,2.38
2023-09-13T09:13:54.373Z,2.35
2023-09-13T09:18:56.129Z,1.98
2023-09-13T09:23:58.246Z,2.03
2023-09-13T09:29:12.420Z,1.83
2023-09-13T09:34:16.664Z,2.17
2023-09-13T09:39:18.064Z,2.17
2023-09-13T09:44:21.081Z,2.08
2023-09-13T09:49:22.639Z,2.50
2023-09-13T09:54:24.162Z,2.38
2023-09-13T09:59:31.190Z,2.63
2023-09-13T10:04:44.667Z,2.05
2023-09-13T10:09:47.805Z,2.50
2023-09-13T10:14:49.286Z,2.45
2023-09-13T10:19:52.264Z,3.15
2023-09-13T10:24:56.049Z,2.67
2023-09-13T10:29:58.799Z,3.03
2023-09-13T10:35:01.698Z,3.17
2023-09-13T10:40:17.054Z,2.80
2023-09-13T10:45:23.526Z,2.35
2023-09-13T10:50:26.011Z,2.58
2023-09-13T10:55:27.729Z,2.35
2023-09-13T11:00:33.260Z,2.70
2023-09-13T11:05:35.133Z,2.05
2023-09-13T11:10:37.122Z,2.10
2023-09-13T11:15:48.389Z,3.05
2023-09-13T11:20:49.897Z,2.78
2023-09-13T11:26:00.850Z,2.58
2023-09-13T11:31:05.783Z,2.10
2023-09-13T11:36:07.477Z,2.60
2023-09-13T11:41:09.027Z,2.90
2023-09-13T11:46:11.710Z,2.42
2023-09-13T11:51:22.117Z,2.45
2023-09-13T11:56:44.173Z,2.58
2023-09-13T12:01:51.104Z,2.70
2023-09-13T12:06:58.767Z,2.38
2023-09-13T12:12:06.253Z,2.42
2023-09-13T12:17:09.154Z,2.15
2023-09-13T12:22:16.653Z,2.33
2023-09-13T12:27:18.206Z,2.33
2023-09-13T12:32:19.779Z,2.13
2023-09-13T12:37:21.250Z,2.20
2023-09-13T12:42:22.822Z,2.05
2023-09-13T12:47:25.826Z,2.22
2023-09-13T12:52:27.563Z,1.90
2023-09-13T12:57:32.401Z,1.92
2023-09-13T13:02:35.138Z,1.80
2023-09-13T13:07:52.754Z,1.90
2023-09-13T13:13:00.825Z,1.85
2023-09-13T13:18:02.457Z,1.83
2023-09-13T13:23:06.271Z,1.80
2023-09-13T13:28:08.718Z,1.80
2023-09-13T13:33:10.344Z,1.88
2023-09-13T13:38:12.137Z,1.98
2023-09-13T13:43:13.609Z,2.03
2023-09-13T13:48:15.071Z,1.77
2023-09-13T13:53:16.529Z,2.05
2023-09-13T13:58:18.018Z,1.92
2023-09-13T14:03:20.225Z,1.85
2023-09-13T14:08:23.920Z,1.55
2023-09-13T14:13:27.127Z,1.60
2023-09-13T14:18:28.714Z,1.40
2023-09-13T14:23:30.336Z,1.65
2023-09-13T14:28:34.118Z,1.45
2023-09-13T14:33:38.973Z,1.30
2023-09-13T14:38:40.513Z,1.00
2023-09-13T14:43:41.988Z,1.15
2023-09-13T14:48:44.171Z,1.67
2023-09-13T14:53:45.919Z,1.25
2023-09-13T14:58:47.726Z,1.45
2023-09-13T15:03:49.426Z,1.40
2023-09-13T15:08:50.946Z,1.75
2023-09-13T15:13:52.379Z,1.60
2023-09-13T15:18:54.453Z,1.35
2023-09-13T15:23:55.999Z,1.70
2023-09-13T15:28:58.034Z,1.60
2023-09-13T15:33:59.748Z,1.58
2023-09-13T15:39:03.692Z,1.40
2023-09-13T15:44:06.870Z,1.70
2023-09-13T15:49:08.411Z,1.60
2023-09-13T15:54:09.863Z,1.83
2023-09-13T15:59:11.423Z,1.63
2023-09-13T16:04:12.942Z,1.67
2023-09-13T16:09:14.543Z,1.40
2023-09-13T16:14:31.627Z,1.75
2023-09-13T16:19:33.187Z,1.67
2023-09-13T16:24:34.708Z,1.70
2023-09-13T16:29:36.263Z,2.30
2023-09-13T16:34:37.735Z,1.75
2023-09-13T16:39:39.428Z,1.50
2023-09-13T16:44:40.981Z,1.48
2023-09-13T16:49:42.543Z,1.60
2023-09-13T16:54:44.207Z,1.50
2023-09-13T16:59:50.870Z,1.60
2023-09-13T17:04:53.893Z,1.80
2023-09-13T17:09:55.438Z,1.83
2023-09-13T17:14:56.973Z,1.80
2023-09-13T17:19:58.445Z,1.88
2023-09-13T17:24:59.976Z,1.50
2023-09-13T17:30:02.206Z,1.98
2023-09-13T17:35:03.797Z,1.35
2023-09-13T17:40:05.676Z,2.10
2023-09-13T17:45:07.247Z,1.58
2023-09-13T17:50:08.795Z,1.52
2023-09-13T17:55:10.303Z,1.80
2023-09-13T18:00:12.086Z,1.77
2023-09-13T18:05:13.648Z,1.60
2023-09-13T18:10:17.778Z,1.75
2023-09-13T18:15:19.367Z,1.70
2023-09-13T18:20:20.904Z,1.95
2023-09-13T18:25:22.850Z,1.70
2023-09-13T18:30:24.426Z,1.63
2023-09-13T18:35:26.032Z,1.58
2023-09-13T18:40:27.714Z,1.70
2023-09-13T18:45:30.336Z,1.80
2023-09-13T18:50:31.904Z,1.92
2023-09-13T18:55:34.903Z,1.92
2023-09-13T19:00:36.375Z,1.80
2023-09-13T19:05:39.302Z,1.90
2023-09-13T19:10:45.310Z,1.58
2023-09-13T19:15:56.061Z,1.63
2023-09-13T19:20:59.239Z,1.83
2023-09-13T19:26:02.214Z,1.83
2023-09-13T19:31:04.447Z,2.00
2023-09-13T19:36:07.734Z,1.70
2023-09-13T19:41:11.432Z,2.10
2023-09-13T19:46:13.055Z,1.85
2023-09-13T19:51:14.522Z,2.13
2023-09-13T19:56:16.078Z,1.85
2023-09-13T20:01:18.605Z,1.75
2023-09-13T20:06:22.793Z,2.08
2023-09-13T20:11:26.608Z,1.92
2023-09-13T20:16:28.177Z,1.88
2023-09-13T20:21:29.852Z,1.73
2023-09-13T20:26:32.077Z,1.83
2023-09-13T20:31:33.625Z,1.73
2023-09-13T20:36:35.238Z,1.73
2023-09-13T20:41:36.780Z,1.58
2023-09-13T20:46:39.572Z,1.90
2023-09-13T20:51:41.255Z,1.42
2023-09-13T20:56:42.844Z,1.88
2023-09-13T21:01:44.325Z,1.85
2023-09-13T21:06:45.852Z,1.70
2023-09-13T21:11:47.327Z,1.88
2023-09-13T21:16:49.010Z,1.60
2023-09-13T21:21:50.944Z,2.10
2023-09-13T21:26:54.503Z,1.50
2023-09-13T21:31:56.108Z,2.00
2023-09-13T21:36:57.597Z,1.70
2023-09-13T21:41:59.036Z,1.75
2023-09-13T21:47:00.529Z,1.83
2023-09-13T21:52:03.154Z,1.88
2023-09-13T21:57:05.147Z,1.85
2023-09-13T22:02:07.487Z,1.70
2023-09-13T22:07:09.401Z,1.67
2023-09-13T22:12:11.589Z,2.35
2023-09-13T22:17:13.080Z,1.60
2023-09-13T22:22:14.570Z,2.00
2023-09-13T22:27:16.054Z,1.60
2023-09-13T22:32:17.638Z,1.80
2023-09-13T22:37:19.056Z,2.20
2023-09-13T22:42:20.603Z,1.80
2023-09-13T22:47:22.092Z,1.80
2023-09-13T22:52:25.970Z,2.00
2023-09-13T22:57:30.138Z,1.75
2023-09-13T23:02:32.202Z,1.70
2023-09-13T23:07:33.867Z,1.75
2023-09-13T23:12:35.366Z,1.73
2023-09-13T23:17:37.016Z,2.22
2023-09-13T23:22:38.587Z,1.95
2023-09-13T23:27:40.037Z,2.22
2023-09-13T23:32:41.456Z,2.33
2023-09-13T23:37:43.685Z,1.60
2023-09-13T23:42:45.668Z,1.90
2023-09-13T23:47:47.280Z,1.65
2023-09-13T23:52:48.755Z,2.05
2023-09-13T23:57:50.394Z,1.95
